sensor_id;sensor_type;location;lat;lon;timestamp;temperature;humidity
14301;DHT22;7234;59.306;18.024;2023-02-28T00:01:07;3.30;99.90
14301;DHT22;7234;59.306;18.024;2023-02-28T00:03:35;3.30;99.90
14301;DHT22;7234;59.306;18.024;2023-02-28T00:06:02;3.30;99.90
14301;DHT22;7234;59.306;18.024;2023-02-28T00:08:31;3.20;99.90
14301;DHT22;7234;59.306;18.024;2023-02-28T00:11:01;3.30;99.90
14301;DHT22;7234;59.306;18.024;2023-02-28T00:13:29;3.20;99.90
14301;DHT22;7234;59.306;18.024;2023-02-28T00:16:03;3.20;99.90
14301;DHT22;7234;59.306;18.024;2023-02-28T00:18:30;3.20;99.90
14301;DHT22;7234;59.306;18.024;2023-02-28T00:20:58;3.20;99.90
14301;DHT22;7234;59.306;18.024;2023-02-28T00:23:25;3.30;99.90
14301;DHT22;7234;59.306;18.024;2023-02-28T00:25:53;3.20;99.90
14301;DHT22;7234;59.306;18.024;2023-02-28T00:28:21;3.20;99.90
14301;DHT22;7234;59.306;18.024;2023-02-28T00:30:48;3.20;99.90
14301;DHT22;7234;59.306;18.024;2023-02-28T00:33:17;3.20;99.90
14301;DHT22;7234;59.306;18.024;2023-02-28T00:35:44;3.30;99.90
14301;DHT22;7234;59.306;18.024;2023-02-28T00:38:12;3.20;99.90
14301;DHT22;7234;59.306;18.024;2023-02-28T00:40:39;3.30;99.90
14301;DHT22;7234;59.306;18.024;2023-02-28T00:43:07;3.30;99.90
14301;DHT22;7234;59.306;18.024;2023-02-28T00:45:34;3.30;99.90
14301;DHT22;7234;59.306;18.024;2023-02-28T00:48:01;3.20;99.90
14301;DHT22;7234;59.306;18.024;2023-02-28T00:50:29;3.20;99.90
14301;DHT22;7234;59.306;18.024;2023-02-28T00:52:56;3.20;99.90
14301;DHT22;7234;59.306;18.024;2023-02-28T00:55:25;3.10;99.90
14301;DHT22;7234;59.306;18.024;2023-02-28T00:57:52;3.10;99.90
14301;DHT22;7234;59.306;18.024;2023-02-28T01:00:20;3.10;99.90
14301;DHT22;7234;59.306;18.024;2023-02-28T01:02:47;3.10;99.90
14301;DHT22;7234;59.306;18.024;2023-02-28T01:05:14;3.10;99.90
14301;DHT22;7234;59.306;18.024;2023-02-28T01:07:43;3.10;99.90
14301;DHT22;7234;59.306;18.024;2023-02-28T01:10:10;3.00;99.90
14301;DHT22;7234;59.306;18.024;2023-02-28T01:12:38;3.00;99.90
14301;DHT22;7234;59.306;18.024;2023-02-28T01:15:06;3.00;99.90
14301;DHT22;7234;59.306;18.024;2023-02-28T01:17:33;3.00;99.90
14301;DHT22;7234;59.306;18.024;2023-02-28T01:20:00;2.90;99.90
14301;DHT22;7234;59.306;18.024;2023-02-28T01:22:27;2.90;99.90
14301;DHT22;7234;59.306;18.024;2023-02-28T01:24:55;2.90;99.90
14301;DHT22;7234;59.306;18.024;2023-02-28T01:27:23;2.90;99.90
14301;DHT22;7234;59.306;18.024;2023-02-28T01:29:50;2.90;99.90
14301;DHT22;7234;59.306;18.024;2023-02-28T01:32:18;2.90;99.90
14301;DHT22;7234;59.306;18.024;2023-02-28T01:34:45;2.90;99.90
14301;DHT22;7234;59.306;18.024;2023-02-28T01:37:12;2.90;99.90
14301;DHT22;7234;59.306;18.024;2023-02-28T01:39:39;2.90;99.90
14301;DHT22;7234;59.306;18.024;2023-02-28T01:42:08;2.80;99.90
14301;DHT22;7234;59.306;18.024;2023-02-28T01:45:18;2.80;99.90
14301;DHT22;7234;59.306;18.024;2023-02-28T01:47:50;2.80;99.90
14301;DHT22;7234;59.306;18.024;2023-02-28T01:50:21;2.70;99.90
14301;DHT22;7234;59.306;18.024;2023-02-28T01:52:50;2.70;99.90
14301;DHT22;7234;59.306;18.024;2023-02-28T01:55:19;2.70;99.90
14301;DHT22;7234;59.306;18.024;2023-02-28T01:57:52;2.60;99.90
14301;DHT22;7234;59.306;18.024;2023-02-28T02:00:23;2.60;99.90
14301;DHT22;7234;59.306;18.024;2023-02-28T02:02:55;2.60;99.90
14301;DHT22;7234;59.306;18.024;2023-02-28T02:05:26;2.60;99.90
14301;DHT22;7234;59.306;18.024;2023-02-28T02:07:55;2.50;99.90
14301;DHT22;7234;59.306;18.024;2023-02-28T02:10:29;2.50;99.90
14301;DHT22;7234;59.306;18.024;2023-02-28T02:13:08;2.50;99.90
14301;DHT22;7234;59.306;18.024;2023-02-28T02:15:41;2.50;99.90
14301;DHT22;7234;59.306;18.024;2023-02-28T02:18:14;2.40;99.90
14301;DHT22;7234;59.306;18.024;2023-02-28T02:21:03;2.50;99.90
14301;DHT22;7234;59.306;18.024;2023-02-28T02:26:51;2.40;99.90
14301;DHT22;7234;59.306;18.024;2023-02-28T02:29:54;2.30;99.90
14301;DHT22;7234;59.306;18.024;2023-02-28T02:32:46;2.30;99.90
14301;DHT22;7234;59.306;18.024;2023-02-28T02:35:21;2.20;99.90
14301;DHT22;7234;59.306;18.024;2023-02-28T02:37:52;2.30;99.90
14301;DHT22;7234;59.306;18.024;2023-02-28T02:40:27;2.20;99.90
14301;DHT22;7234;59.306;18.024;2023-02-28T02:43:02;2.30;99.90
14301;DHT22;7234;59.306;18.024;2023-02-28T02:45:33;2.30;99.90
14301;DHT22;7234;59.306;18.024;2023-02-28T02:48:03;2.30;99.90
14301;DHT22;7234;59.306;18.024;2023-02-28T02:50:36;2.30;99.90
14301;DHT22;7234;59.306;18.024;2023-02-28T02:53:05;2.20;99.90
14301;DHT22;7234;59.306;18.024;2023-02-28T02:55:37;2.20;99.90
14301;DHT22;7234;59.306;18.024;2023-02-28T02:58:10;2.20;99.90
14301;DHT22;7234;59.306;18.024;2023-02-28T03:00:42;2.20;99.90
14301;DHT22;7234;59.306;18.024;2023-02-28T03:03:11;2.20;99.90
14301;DHT22;7234;59.306;18.024;2023-02-28T03:05:43;2.20;99.90
14301;DHT22;7234;59.306;18.024;2023-02-28T03:08:14;2.20;99.90
14301;DHT22;7234;59.306;18.024;2023-02-28T03:10:43;2.10;99.90
14301;DHT22;7234;59.306;18.024;2023-02-28T03:16:22;2.00;99.90
14301;DHT22;7234;59.306;18.024;2023-02-28T03:18:57;2.10;99.90
14301;DHT22;7234;59.306;18.024;2023-02-28T03:21:35;2.00;99.90
14301;DHT22;7234;59.306;18.024;2023-02-28T03:24:05;2.10;99.90
14301;DHT22;7234;59.306;18.024;2023-02-28T03:26:40;2.00;99.90
14301;DHT22;7234;59.306;18.024;2023-02-28T03:29:15;2.00;99.90
14301;DHT22;7234;59.306;18.024;2023-02-28T03:31:47;2.00;99.90
14301;DHT22;7234;59.306;18.024;2023-02-28T03:34:22;2.00;99.90
14301;DHT22;7234;59.306;18.024;2023-02-28T03:36:55;1.90;99.90
14301;DHT22;7234;59.306;18.024;2023-02-28T03:39:26;1.90;99.90
14301;DHT22;7234;59.306;18.024;2023-02-28T03:41:58;1.90;99.90
14301;DHT22;7234;59.306;18.024;2023-02-28T03:44:30;1.90;99.90
14301;DHT22;7234;59.306;18.024;2023-02-28T03:47:02;1.80;99.90
14301;DHT22;7234;59.306;18.024;2023-02-28T03:49:33;1.80;99.90
14301;DHT22;7234;59.306;18.024;2023-02-28T03:52:06;1.80;99.90
14301;DHT22;7234;59.306;18.024;2023-02-28T03:54:38;1.80;99.90
14301;DHT22;7234;59.306;18.024;2023-02-28T03:57:11;1.80;99.90
14301;DHT22;7234;59.306;18.024;2023-02-28T03:59:43;1.80;99.90
14301;DHT22;7234;59.306;18.024;2023-02-28T04:02:11;1.80;99.90
14301;DHT22;7234;59.306;18.024;2023-02-28T04:04:38;1.70;99.90
14301;DHT22;7234;59.306;18.024;2023-02-28T04:07:15;1.70;99.90
14301;DHT22;7234;59.306;18.024;2023-02-28T04:09:42;1.70;99.90
14301;DHT22;7234;59.306;18.024;2023-02-28T04:12:10;1.70;99.90
14301;DHT22;7234;59.306;18.024;2023-02-28T04:14:37;1.70;99.90
14301;DHT22;7234;59.306;18.024;2023-02-28T04:17:04;1.60;99.90
14301;DHT22;7234;59.306;18.024;2023-02-28T04:19:31;1.60;99.90
14301;DHT22;7234;59.306;18.024;2023-02-28T04:22:01;1.70;99.90
14301;DHT22;7234;59.306;18.024;2023-02-28T04:24:29;1.70;99.90
14301;DHT22;7234;59.306;18.024;2023-02-28T04:26:57;1.60;99.90
14301;DHT22;7234;59.306;18.024;2023-02-28T04:29:28;1.60;99.90
14301;DHT22;7234;59.306;18.024;2023-02-28T04:31:56;1.60;99.90
14301;DHT22;7234;59.306;18.024;2023-02-28T04:34:25;1.70;99.90
14301;DHT22;7234;59.306;18.024;2023-02-28T04:36:52;1.60;99.90
14301;DHT22;7234;59.306;18.024;2023-02-28T04:39:21;1.60;99.90
14301;DHT22;7234;59.306;18.024;2023-02-28T04:41:49;1.60;99.90
14301;DHT22;7234;59.306;18.024;2023-02-28T04:44:17;1.50;99.90
14301;DHT22;7234;59.306;18.024;2023-02-28T04:46:44;1.50;99.90
14301;DHT22;7234;59.306;18.024;2023-02-28T04:49:12;1.50;99.90
14301;DHT22;7234;59.306;18.024;2023-02-28T04:51:39;1.50;99.90
14301;DHT22;7234;59.306;18.024;2023-02-28T04:54:06;1.50;99.90
14301;DHT22;7234;59.306;18.024;2023-02-28T04:56:34;1.50;99.90
14301;DHT22;7234;59.306;18.024;2023-02-28T04:59:05;1.50;99.90
14301;DHT22;7234;59.306;18.024;2023-02-28T05:01:33;1.50;99.90
14301;DHT22;7234;59.306;18.024;2023-02-28T05:04:03;1.50;99.90
14301;DHT22;7234;59.306;18.024;2023-02-28T05:06:33;1.40;99.90
14301;DHT22;7234;59.306;18.024;2023-02-28T05:09:00;1.40;99.90
14301;DHT22;7234;59.306;18.024;2023-02-28T05:11:29;1.40;99.90
14301;DHT22;7234;59.306;18.024;2023-02-28T05:14:00;1.40;99.90
14301;DHT22;7234;59.306;18.024;2023-02-28T05:16:29;1.40;99.90
14301;DHT22;7234;59.306;18.024;2023-02-28T05:18:56;1.40;99.90
14301;DHT22;7234;59.306;18.024;2023-02-28T05:21:27;1.30;99.90
14301;DHT22;7234;59.306;18.024;2023-02-28T05:23:55;1.30;99.90
14301;DHT22;7234;59.306;18.024;2023-02-28T05:26:23;1.30;99.90
14301;DHT22;7234;59.306;18.024;2023-02-28T05:28:50;1.30;99.90
14301;DHT22;7234;59.306;18.024;2023-02-28T05:31:17;1.30;99.90
14301;DHT22;7234;59.306;18.024;2023-02-28T05:33:46;1.30;99.90
14301;DHT22;7234;59.306;18.024;2023-02-28T05:36:13;1.30;99.90
14301;DHT22;7234;59.306;18.024;2023-02-28T05:38:40;1.30;99.90
14301;DHT22;7234;59.306;18.024;2023-02-28T05:41:08;1.30;99.90
14301;DHT22;7234;59.306;18.024;2023-02-28T05:43:36;1.30;99.90
14301;DHT22;7234;59.306;18.024;2023-02-28T05:46:04;1.30;99.90
14301;DHT22;7234;59.306;18.024;2023-02-28T05:48:32;1.30;99.90
14301;DHT22;7234;59.306;18.024;2023-02-28T05:51:04;1.30;99.90
14301;DHT22;7234;59.306;18.024;2023-02-28T05:53:33;1.30;99.90
14301;DHT22;7234;59.306;18.024;2023-02-28T05:56:01;1.30;99.90
14301;DHT22;7234;59.306;18.024;2023-02-28T05:58:28;1.30;99.90
14301;DHT22;7234;59.306;18.024;2023-02-28T06:00:56;1.30;99.90
14301;DHT22;7234;59.306;18.024;2023-02-28T06:03:25;1.30;99.90
14301;DHT22;7234;59.306;18.024;2023-02-28T06:05:52;1.30;99.90
14301;DHT22;7234;59.306;18.024;2023-02-28T06:08:21;1.30;99.90
14301;DHT22;7234;59.306;18.024;2023-02-28T06:10:48;1.30;99.90
14301;DHT22;7234;59.306;18.024;2023-02-28T06:13:15;1.30;99.90
14301;DHT22;7234;59.306;18.024;2023-02-28T06:15:42;1.30;99.90
14301;DHT22;7234;59.306;18.024;2023-02-28T06:18:10;1.40;99.90
14301;DHT22;7234;59.306;18.024;2023-02-28T06:20:37;1.40;99.90
14301;DHT22;7234;59.306;18.024;2023-02-28T06:23:04;1.50;99.90
14301;DHT22;7234;59.306;18.024;2023-02-28T06:25:33;1.50;99.90
14301;DHT22;7234;59.306;18.024;2023-02-28T06:28:00;1.50;99.90
14301;DHT22;7234;59.306;18.024;2023-02-28T06:30:27;1.60;99.90
14301;DHT22;7234;59.306;18.024;2023-02-28T06:33:20;1.70;99.90
14301;DHT22;7234;59.306;18.024;2023-02-28T06:35:50;1.80;99.90
14301;DHT22;7234;59.306;18.024;2023-02-28T06:38:32;1.90;99.90
14301;DHT22;7234;59.306;18.024;2023-02-28T06:41:10;2.60;99.90
14301;DHT22;7234;59.306;18.024;2023-02-28T06:43:43;3.60;99.90
14301;DHT22;7234;59.306;18.024;2023-02-28T06:46:13;5.10;99.90
14301;DHT22;7234;59.306;18.024;2023-02-28T06:48:43;6.60;99.90
14301;DHT22;7234;59.306;18.024;2023-02-28T06:51:12;7.40;99.90
14301;DHT22;7234;59.306;18.024;2023-02-28T06:53:40;7.40;99.90
14301;DHT22;7234;59.306;18.024;2023-02-28T06:56:11;7.30;99.90
14301;DHT22;7234;59.306;18.024;2023-02-28T06:58:42;7.90;99.90
14301;DHT22;7234;59.306;18.024;2023-02-28T07:01:09;9.00;99.90
14301;DHT22;7234;59.306;18.024;2023-02-28T07:03:36;10.50;99.90
14301;DHT22;7234;59.306;18.024;2023-02-28T07:06:05;11.70;99.90
14301;DHT22;7234;59.306;18.024;2023-02-28T07:08:32;12.00;99.90
14301;DHT22;7234;59.306;18.024;2023-02-28T07:11:00;12.00;99.90
14301;DHT22;7234;59.306;18.024;2023-02-28T07:13:28;12.20;99.90
14301;DHT22;7234;59.306;18.024;2023-02-28T07:15:57;12.80;99.90
14301;DHT22;7234;59.306;18.024;2023-02-28T07:18:35;13.80;99.90
14301;DHT22;7234;59.306;18.024;2023-02-28T07:21:03;14.80;99.90
14301;DHT22;7234;59.306;18.024;2023-02-28T07:23:30;15.30;99.90
14301;DHT22;7234;59.306;18.024;2023-02-28T07:25:57;15.10;99.90
14301;DHT22;7234;59.306;18.024;2023-02-28T07:28:24;14.70;99.90
14301;DHT22;7234;59.306;18.024;2023-02-28T07:30:56;14.30;99.90
14301;DHT22;7234;59.306;18.024;2023-02-28T07:33:25;14.50;99.90
14301;DHT22;7234;59.306;18.024;2023-02-28T07:35:56;14.60;99.90
14301;DHT22;7234;59.306;18.024;2023-02-28T07:38:26;14.60;99.90
14301;DHT22;7234;59.306;18.024;2023-02-28T07:40:54;15.00;99.90
14301;DHT22;7234;59.306;18.024;2023-02-28T07:43:21;14.60;99.90
14301;DHT22;7234;59.306;18.024;2023-02-28T07:45:48;14.20;99.90
14301;DHT22;7234;59.306;18.024;2023-02-28T07:48:17;14.40;99.90
14301;DHT22;7234;59.306;18.024;2023-02-28T07:50:44;14.60;99.90
14301;DHT22;7234;59.306;18.024;2023-02-28T07:53:21;14.40;99.90
14301;DHT22;7234;59.306;18.024;2023-02-28T07:55:56;14.00;99.90
14301;DHT22;7234;59.306;18.024;2023-02-28T07:58:26;14.10;99.90
14301;DHT22;7234;59.306;18.024;2023-02-28T08:00:54;14.30;99.90
14301;DHT22;7234;59.306;18.024;2023-02-28T08:03:25;14.50;99.90
14301;DHT22;7234;59.306;18.024;2023-02-28T08:05:53;14.60;99.90
14301;DHT22;7234;59.306;18.024;2023-02-28T08:08:21;15.40;99.90
14301;DHT22;7234;59.306;18.024;2023-02-28T08:10:49;16.10;99.90
14301;DHT22;7234;59.306;18.024;2023-02-28T08:13:16;16.70;99.90
14301;DHT22;7234;59.306;18.024;2023-02-28T08:15:43;17.10;99.90
14301;DHT22;7234;59.306;18.024;2023-02-28T08:18:11;17.10;99.90
14301;DHT22;7234;59.306;18.024;2023-02-28T08:20:40;17.30;99.90
14301;DHT22;7234;59.306;18.024;2023-02-28T08:23:07;17.40;99.90
14301;DHT22;7234;59.306;18.024;2023-02-28T08:25:34;17.40;99.90
14301;DHT22;7234;59.306;18.024;2023-02-28T08:28:01;17.50;99.90
14301;DHT22;7234;59.306;18.024;2023-02-28T08:30:28;17.10;99.90
14301;DHT22;7234;59.306;18.024;2023-02-28T08:32:56;16.50;99.90
14301;DHT22;7234;59.306;18.024;2023-02-28T08:35:23;15.30;99.90
14301;DHT22;7234;59.306;18.024;2023-02-28T08:37:52;15.20;99.90
14301;DHT22;7234;59.306;18.024;2023-02-28T08:40:19;15.60;99.90
14301;DHT22;7234;59.306;18.024;2023-02-28T08:42:47;16.00;99.90
14301;DHT22;7234;59.306;18.024;2023-02-28T08:45:17;16.70;99.90
14301;DHT22;7234;59.306;18.024;2023-02-28T08:47:45;16.80;99.90
14301;DHT22;7234;59.306;18.024;2023-02-28T08:50:19;17.00;99.90
14301;DHT22;7234;59.306;18.024;2023-02-28T08:53:05;16.60;99.90
14301;DHT22;7234;59.306;18.024;2023-02-28T08:55:34;15.90;99.90
14301;DHT22;7234;59.306;18.024;2023-02-28T08:58:02;15.10;99.90
14301;DHT22;7234;59.306;18.024;2023-02-28T09:00:46;14.70;99.90
14301;DHT22;7234;59.306;18.024;2023-02-28T09:03:24;14.30;99.90
14301;DHT22;7234;59.306;18.024;2023-02-28T09:05:54;13.70;99.90
14301;DHT22;7234;59.306;18.024;2023-02-28T09:08:43;13.80;99.90
14301;DHT22;7234;59.306;18.024;2023-02-28T09:11:16;14.40;99.90
14301;DHT22;7234;59.306;18.024;2023-02-28T09:13:47;16.30;99.90
14301;DHT22;7234;59.306;18.024;2023-02-28T09:16:17;17.80;99.90
14301;DHT22;7234;59.306;18.024;2023-02-28T09:18:56;19.00;99.90
14301;DHT22;7234;59.306;18.024;2023-02-28T09:21:26;19.00;99.90
14301;DHT22;7234;59.306;18.024;2023-02-28T09:23:57;19.20;99.90
14301;DHT22;7234;59.306;18.024;2023-02-28T09:26:29;19.40;99.90
14301;DHT22;7234;59.306;18.024;2023-02-28T09:28:58;19.20;99.90
14301;DHT22;7234;59.306;18.024;2023-02-28T09:31:29;19.00;99.90
14301;DHT22;7234;59.306;18.024;2023-02-28T09:33:58;19.20;99.90
14301;DHT22;7234;59.306;18.024;2023-02-28T09:36:29;19.00;99.90
14301;DHT22;7234;59.306;18.024;2023-02-28T09:39:13;19.10;99.90
14301;DHT22;7234;59.306;18.024;2023-02-28T09:41:47;19.20;99.90
14301;DHT22;7234;59.306;18.024;2023-02-28T09:44:22;19.20;99.90
14301;DHT22;7234;59.306;18.024;2023-02-28T09:46:55;18.80;99.90
14301;DHT22;7234;59.306;18.024;2023-02-28T09:49:32;19.30;99.90
14301;DHT22;7234;59.306;18.024;2023-02-28T09:52:10;18.80;99.90
14301;DHT22;7234;59.306;18.024;2023-02-28T09:54:40;18.70;99.90
14301;DHT22;7234;59.306;18.024;2023-02-28T09:57:19;18.40;99.90
14301;DHT22;7234;59.306;18.024;2023-02-28T10:00:00;18.20;99.90
14301;DHT22;7234;59.306;18.024;2023-02-28T10:03:05;17.50;99.90
14301;DHT22;7234;59.306;18.024;2023-02-28T10:05:36;17.10;99.90
14301;DHT22;7234;59.306;18.024;2023-02-28T10:08:13;16.90;99.90
14301;DHT22;7234;59.306;18.024;2023-02-28T10:10:44;16.40;99.90
14301;DHT22;7234;59.306;18.024;2023-02-28T10:13:17;16.20;99.90
14301;DHT22;7234;59.306;18.024;2023-02-28T10:15:51;16.20;99.90
14301;DHT22;7234;59.306;18.024;2023-02-28T10:18:24;16.40;99.90
14301;DHT22;7234;59.306;18.024;2023-02-28T10:20:53;16.20;99.90
14301;DHT22;7234;59.306;18.024;2023-02-28T10:23:24;16.10;99.90
14301;DHT22;7234;59.306;18.024;2023-02-28T10:25:58;16.10;99.90
14301;DHT22;7234;59.306;18.024;2023-02-28T10:28:29;15.50;99.90
14301;DHT22;7234;59.306;18.024;2023-02-28T10:31:01;15.20;99.90
14301;DHT22;7234;59.306;18.024;2023-02-28T10:33:30;15.20;99.90
14301;DHT22;7234;59.306;18.024;2023-02-28T10:36:01;15.20;99.90
14301;DHT22;7234;59.306;18.024;2023-02-28T10:38:34;15.10;99.90
14301;DHT22;7234;59.306;18.024;2023-02-28T10:41:12;15.20;99.90
14301;DHT22;7234;59.306;18.024;2023-02-28T10:43:42;15.20;99.90
14301;DHT22;7234;59.306;18.024;2023-02-28T10:46:14;15.10;99.90
14301;DHT22;7234;59.306;18.024;2023-02-28T10:49:01;14.70;99.90
14301;DHT22;7234;59.306;18.024;2023-02-28T10:51:40;14.40;99.90
14301;DHT22;7234;59.306;18.024;2023-02-28T10:54:19;14.20;99.90
14301;DHT22;7234;59.306;18.024;2023-02-28T10:57:06;14.40;99.90
14301;DHT22;7234;59.306;18.024;2023-02-28T10:59:36;14.30;99.90
14301;DHT22;7234;59.306;18.024;2023-02-28T11:02:34;14.70;99.90
14301;DHT22;7234;59.306;18.024;2023-02-28T11:05:02;15.20;99.90
14301;DHT22;7234;59.306;18.024;2023-02-28T11:07:30;15.50;99.90
14301;DHT22;7234;59.306;18.024;2023-02-28T11:09:58;15.70;99.90
14301;DHT22;7234;59.306;18.024;2023-02-28T11:12:29;15.60;99.90
14301;DHT22;7234;59.306;18.024;2023-02-28T11:15:04;15.20;99.90
14301;DHT22;7234;59.306;18.024;2023-02-28T11:17:33;15.40;99.90
14301;DHT22;7234;59.306;18.024;2023-02-28T11:20:02;15.60;99.90
14301;DHT22;7234;59.306;18.024;2023-02-28T11:22:32;16.00;99.90
14301;DHT22;7234;59.306;18.024;2023-02-28T11:25:06;16.50;99.90
14301;DHT22;7234;59.306;18.024;2023-02-28T11:27:51;16.80;99.90
14301;DHT22;7234;59.306;18.024;2023-02-28T11:30:31;17.50;99.90
14301;DHT22;7234;59.306;18.024;2023-02-28T11:32:59;17.80;99.90
14301;DHT22;7234;59.306;18.024;2023-02-28T11:35:29;18.20;99.90
14301;DHT22;7234;59.306;18.024;2023-02-28T11:37:57;18.50;99.90
14301;DHT22;7234;59.306;18.024;2023-02-28T11:40:33;18.90;99.90
14301;DHT22;7234;59.306;18.024;2023-02-28T11:43:13;18.70;99.90
14301;DHT22;7234;59.306;18.024;2023-02-28T11:45:58;18.30;99.90
14301;DHT22;7234;59.306;18.024;2023-02-28T11:48:36;17.90;99.90
14301;DHT22;7234;59.306;18.024;2023-02-28T11:51:13;17.80;99.90
14301;DHT22;7234;59.306;18.024;2023-02-28T11:54:14;17.50;99.90
14301;DHT22;7234;59.306;18.024;2023-02-28T11:56:48;17.70;99.90
14301;DHT22;7234;59.306;18.024;2023-02-28T11:59:38;17.40;99.90
14301;DHT22;7234;59.306;18.024;2023-02-28T12:02:28;17.40;99.90
14301;DHT22;7234;59.306;18.024;2023-02-28T12:05:11;17.00;99.90
14301;DHT22;7234;59.306;18.024;2023-02-28T12:07:55;16.20;99.90
14301;DHT22;7234;59.306;18.024;2023-02-28T12:10:34;15.80;99.90
14301;DHT22;7234;59.306;18.024;2023-02-28T12:13:10;15.30;99.90
14301;DHT22;7234;59.306;18.024;2023-02-28T12:16:04;15.00;99.90
14301;DHT22;7234;59.306;18.024;2023-02-28T12:18:48;15.00;99.90
14301;DHT22;7234;59.306;18.024;2023-02-28T12:21:30;15.20;99.90
14301;DHT22;7234;59.306;18.024;2023-02-28T12:24:18;15.70;99.90
14301;DHT22;7234;59.306;18.024;2023-02-28T12:26:50;16.50;99.90
14301;DHT22;7234;59.306;18.024;2023-02-28T12:29:21;16.90;99.90
14301;DHT22;7234;59.306;18.024;2023-02-28T12:31:55;17.40;99.90
14301;DHT22;7234;59.306;18.024;2023-02-28T12:34:28;17.50;99.90
14301;DHT22;7234;59.306;18.024;2023-02-28T12:36:58;17.90;99.90
14301;DHT22;7234;59.306;18.024;2023-02-28T12:39:30;18.40;99.90
14301;DHT22;7234;59.306;18.024;2023-02-28T12:42:09;18.40;99.90
14301;DHT22;7234;59.306;18.024;2023-02-28T12:44:46;18.60;99.90
14301;DHT22;7234;59.306;18.024;2023-02-28T12:47:18;18.70;99.90
14301;DHT22;7234;59.306;18.024;2023-02-28T12:49:51;18.80;99.90
14301;DHT22;7234;59.306;18.024;2023-02-28T12:52:24;19.00;99.90
14301;DHT22;7234;59.306;18.024;2023-02-28T12:54:55;18.90;99.90
14301;DHT22;7234;59.306;18.024;2023-02-28T12:57:33;18.90;99.90
14301;DHT22;7234;59.306;18.024;2023-02-28T13:00:08;18.50;99.90
14301;DHT22;7234;59.306;18.024;2023-02-28T13:09:05;17.10;99.90
14301;DHT22;7234;59.306;18.024;2023-02-28T13:11:40;17.00;99.90
14301;DHT22;7234;59.306;18.024;2023-02-28T13:14:19;17.00;99.90
14301;DHT22;7234;59.306;18.024;2023-02-28T13:17:02;17.00;99.90
14301;DHT22;7234;59.306;18.024;2023-02-28T13:19:31;16.90;99.90
14301;DHT22;7234;59.306;18.024;2023-02-28T13:21:59;16.90;99.90
14301;DHT22;7234;59.306;18.024;2023-02-28T13:24:44;16.90;99.90
14301;DHT22;7234;59.306;18.024;2023-02-28T13:27:22;16.90;99.90
14301;DHT22;7234;59.306;18.024;2023-02-28T13:29:52;16.80;99.90
14301;DHT22;7234;59.306;18.024;2023-02-28T13:32:28;16.70;99.90
14301;DHT22;7234;59.306;18.024;2023-02-28T13:35:42;16.80;99.90
14301;DHT22;7234;59.306;18.024;2023-02-28T13:38:40;16.40;99.90
14301;DHT22;7234;59.306;18.024;2023-02-28T13:41:46;15.70;99.90
14301;DHT22;7234;59.306;18.024;2023-02-28T13:44:19;15.20;99.90
14301;DHT22;7234;59.306;18.024;2023-02-28T13:47:19;15.10;99.90
14301;DHT22;7234;59.306;18.024;2023-02-28T13:49:47;15.00;99.90
14301;DHT22;7234;59.306;18.024;2023-02-28T13:52:18;14.80;99.90
14301;DHT22;7234;59.306;18.024;2023-02-28T13:55:09;15.00;99.90
14301;DHT22;7234;59.306;18.024;2023-02-28T13:57:54;14.90;99.90
14301;DHT22;7234;59.306;18.024;2023-02-28T14:00:36;14.70;99.90
14301;DHT22;7234;59.306;18.024;2023-02-28T14:03:38;14.30;99.90
14301;DHT22;7234;59.306;18.024;2023-02-28T14:06:10;14.00;99.90
14301;DHT22;7234;59.306;18.024;2023-02-28T14:08:49;13.50;99.90
14301;DHT22;7234;59.306;18.024;2023-02-28T14:11:28;13.20;99.90
14301;DHT22;7234;59.306;18.024;2023-02-28T14:13:58;13.10;99.90
14301;DHT22;7234;59.306;18.024;2023-02-28T14:16:37;13.00;99.90
14301;DHT22;7234;59.306;18.024;2023-02-28T14:19:11;12.80;99.90
14301;DHT22;7234;59.306;18.024;2023-02-28T14:21:47;12.80;99.90
14301;DHT22;7234;59.306;18.024;2023-02-28T14:27:35;12.20;99.90
14301;DHT22;7234;59.306;18.024;2023-02-28T14:30:43;11.80;99.90
14301;DHT22;7234;59.306;18.024;2023-02-28T14:33:23;11.60;99.90
14301;DHT22;7234;59.306;18.024;2023-02-28T14:36:05;11.40;99.90
14301;DHT22;7234;59.306;18.024;2023-02-28T14:38:38;11.10;99.90
14301;DHT22;7234;59.306;18.024;2023-02-28T14:41:16;11.00;99.90
14301;DHT22;7234;59.306;18.024;2023-02-28T14:43:50;10.80;99.90
14301;DHT22;7234;59.306;18.024;2023-02-28T14:46:19;10.70;99.90
14301;DHT22;7234;59.306;18.024;2023-02-28T14:48:47;10.60;99.90
14301;DHT22;7234;59.306;18.024;2023-02-28T14:51:20;10.60;99.90
14301;DHT22;7234;59.306;18.024;2023-02-28T14:53:50;10.60;99.90
14301;DHT22;7234;59.306;18.024;2023-02-28T14:56:24;10.50;99.90
14301;DHT22;7234;59.306;18.024;2023-02-28T14:58:54;10.40;99.90
14301;DHT22;7234;59.306;18.024;2023-02-28T15:01:24;10.20;99.90
14301;DHT22;7234;59.306;18.024;2023-02-28T15:04:00;10.10;99.90
14301;DHT22;7234;59.306;18.024;2023-02-28T15:06:30;10.00;99.90
14301;DHT22;7234;59.306;18.024;2023-02-28T15:09:08;9.90;99.90
14301;DHT22;7234;59.306;18.024;2023-02-28T15:11:37;9.80;99.90
14301;DHT22;7234;59.306;18.024;2023-02-28T15:14:05;9.60;99.90
14301;DHT22;7234;59.306;18.024;2023-02-28T15:16:36;9.40;99.90
14301;DHT22;7234;59.306;18.024;2023-02-28T15:19:07;9.30;99.90
14301;DHT22;7234;59.306;18.024;2023-02-28T15:21:40;9.20;99.90
14301;DHT22;7234;59.306;18.024;2023-02-28T15:24:14;9.10;99.90
14301;DHT22;7234;59.306;18.024;2023-02-28T15:26:53;9.00;99.90
14301;DHT22;7234;59.306;18.024;2023-02-28T15:29:23;8.90;99.90
14301;DHT22;7234;59.306;18.024;2023-02-28T15:31:56;8.90;99.90
14301;DHT22;7234;59.306;18.024;2023-02-28T15:34:35;8.80;99.90
14301;DHT22;7234;59.306;18.024;2023-02-28T15:39:50;8.60;99.90
14301;DHT22;7234;59.306;18.024;2023-02-28T15:42:19;8.50;99.90
14301;DHT22;7234;59.306;18.024;2023-02-28T15:44:47;8.50;99.90
14301;DHT22;7234;59.306;18.024;2023-02-28T15:47:18;8.40;99.90
14301;DHT22;7234;59.306;18.024;2023-02-28T15:49:50;8.30;99.90
14301;DHT22;7234;59.306;18.024;2023-02-28T15:52:21;8.20;99.90
14301;DHT22;7234;59.306;18.024;2023-02-28T15:54:51;8.10;99.90
14301;DHT22;7234;59.306;18.024;2023-02-28T15:57:33;8.00;99.90
14301;DHT22;7234;59.306;18.024;2023-02-28T16:00:08;7.90;99.90
14301;DHT22;7234;59.306;18.024;2023-02-28T16:02:40;7.90;99.90
14301;DHT22;7234;59.306;18.024;2023-02-28T16:05:20;7.80;99.90
14301;DHT22;7234;59.306;18.024;2023-02-28T16:07:53;7.70;99.90
14301;DHT22;7234;59.306;18.024;2023-02-28T16:10:21;7.60;99.90
14301;DHT22;7234;59.306;18.024;2023-02-28T16:12:53;7.60;99.90
14301;DHT22;7234;59.306;18.024;2023-02-28T16:15:22;7.50;99.90
14301;DHT22;7234;59.306;18.024;2023-02-28T16:17:57;7.40;99.90
14301;DHT22;7234;59.306;18.024;2023-02-28T16:20:27;7.40;99.90
14301;DHT22;7234;59.306;18.024;2023-02-28T16:22:56;7.30;99.90
14301;DHT22;7234;59.306;18.024;2023-02-28T16:25:33;7.30;99.90
14301;DHT22;7234;59.306;18.024;2023-02-28T16:28:00;7.20;99.90
14301;DHT22;7234;59.306;18.024;2023-02-28T16:30:28;7.20;99.90
14301;DHT22;7234;59.306;18.024;2023-02-28T16:32:58;7.20;99.90